Halifax, NC

9:01 PM EDT en Octubre 31, 2014 (GMT -0400)
Roanoke Rapids | Change Station
CLOSE
Current Station
Aeropuerto
Location: Roanoke Rapids,
Altura: 144 ft
Estaciones meteorológicas cercanas

Alt 144 ft 36.33 °N, 77.64 °W | Updated 6 minutes ago

Despejado
Despejado
43 ° F
Sensación térmica 43 ° F
N
0
Viento Variable Viento desde Norte

Hoy
Alta -- | Baja -- ° F
--% Posibilidad de precipitaciones
Ayer
Alta -- | Baja -- ° F
Precip. -- pul
7:32 AM 6:15 PM
Cuarto creciente, 60% visible
Presión 29.82 pul
Visibilidad 10.0 Millas
Nubes Despejado
Punto de rocío 43 ° F
Humedad 100%
Precipitaciones 0.00 pul
Espesor de la nieve No disponible.
UV 0 de una escala de 12
Polen .10 de una escala de 12
Calidad del aire No disponible.
Flu Activity No disponible.
METAR KIXA 010055Z AUTO 00000KT 10SM CLR 06/06 A2982 RMK AO2

More Conditions Fewer Conditions

Presión 29.82 pul
Visibilidad 10.0 Millas
Nubes Despejado
Punto de rocío 43 ° F
Humedad 100%
Precipitaciones 0.00 pul
Espesor de la nieve No disponible.
UV 0 de una escala de 12
Polen .10 de una escala de 12
Calidad del aire No disponible.
Flu Activity No disponible.
METAR KIXA 010055Z AUTO 00000KT 10SM CLR 06/06 A2982 RMK AO2

More Conditions Fewer Conditions

10-Day Weather Forecast

Almanac

Astronomía

Oct. 31, 2014 Salida Puesta
Hora real
Crepúsculo civil
Crepúsculo náutico
Crepúsculo astronómico
Luna
Horas de luz
Horas de luz
Tomorrow will be .
, % of the Moon is Illuminated

Extremos de hoy

Máximos del estado Bajos del estado

Community

WunderPhotos

Upload Photos

1,766,798 ¡fotos cargadas!

WunderBlogs® & News

Nearby

Calidad del aire

  Calidad del aire Índice AQ Contaminante
Not available.

Grosos de nieve

Estación Profundido Altura

Actividad de terremotos

Ciudad Distance Mag. Tiempo y dato
Magnitud mínima muestra es 2,5.

Temperaturas de aguas costeras

Lugar Temperatura

Estaciones meteorológicas cercanas